SDM1010 ULLI-UWKD
Flight info
| Callsign | SDM1010 |
|---|---|
| Flight time | 1h 35m |
| Altitude | 39000 |
| Route | SUGIN1A SUGIN DCT OLUGA DCT GILAM DCT NAMER L94 UNORO T788 KOROM KOROM1R |
| Aircraft | B77W/H-SDE1E2E3FGHIJ2J3J4J5M1RWXY/D1G1 |
Departure
| Time | 2026-05-01 09:13 |
|---|---|
| Airport | Pulkovo Airport (ULLI) |
Arrival
| Time | 2026-05-01 10:49 |
|---|---|
| Airport | Kazan International Airport (UWKD) |
| Time | Latitude | Longitude | Altitude | Speed | Heading |
|---|---|---|---|---|---|
| 2026-05-01 08:07 | 59.79750 | 30.25915 | 86 ft | 0 kts | 286° |
| 2026-05-01 08:53 | 59.79745 | 30.25945 | 90 ft | 4 kts | 292° |
| 2026-05-01 08:53 | 59.79733 | 30.25991 | 90 ft | 4 kts | 307° |
| 2026-05-01 08:54 | 59.79722 | 30.26016 | 89 ft | 4 kts | 320° |
| 2026-05-01 08:54 | 59.79694 | 30.26047 | 89 ft | 4 kts | 351° |
| 2026-05-01 08:54 | 59.79669 | 30.26048 | 88 ft | 4 kts | 12° |
| 2026-05-01 08:54 | 59.79653 | 30.26039 | 90 ft | 4 kts | 24° |
| 2026-05-01 08:55 | 59.79640 | 30.26028 | 90 ft | 0 kts | 30° |
| 2026-05-01 08:57 | 59.79641 | 30.26028 | 90 ft | 1 kts | 30° |
| 2026-05-01 08:57 | 59.79684 | 30.26072 | 90 ft | 10 kts | 23° |
| 2026-05-01 08:58 | 59.79749 | 30.26114 | 90 ft | 10 kts | 16° |
| 2026-05-01 08:58 | 59.79814 | 30.26152 | 91 ft | 10 kts | 17° |
| 2026-05-01 08:58 | 59.79879 | 30.26191 | 88 ft | 10 kts | 17° |
| 2026-05-01 08:58 | 59.79949 | 30.26233 | 89 ft | 12 kts | 18° |
| 2026-05-01 08:59 | 59.80034 | 30.26284 | 89 ft | 14 kts | 17° |
| 2026-05-01 08:59 | 59.80138 | 30.26346 | 89 ft | 17 kts | 17° |
| 2026-05-01 08:59 | 59.80260 | 30.26418 | 89 ft | 19 kts | 17° |
| 2026-05-01 08:59 | 59.80386 | 30.26465 | 90 ft | 15 kts | 13° |
| 2026-05-01 09:00 | 59.80430 | 30.26574 | 90 ft | 10 kts | 88° |
| 2026-05-01 09:00 | 59.80416 | 30.26721 | 90 ft | 11 kts | 105° |
| 2026-05-01 09:00 | 59.80402 | 30.26818 | 90 ft | 0 kts | 106° |
| 2026-05-01 09:06 | 59.80399 | 30.26841 | 90 ft | 3 kts | 105° |
| 2026-05-01 09:06 | 59.80382 | 30.26965 | 89 ft | 18 kts | 104° |
| 2026-05-01 09:06 | 59.80352 | 30.27158 | 86 ft | 13 kts | 107° |
| 2026-05-01 09:07 | 59.80324 | 30.27338 | 88 ft | 14 kts | 106° |
| 2026-05-01 09:07 | 59.80297 | 30.27523 | 89 ft | 14 kts | 106° |
| 2026-05-01 09:07 | 59.80268 | 30.27719 | 87 ft | 15 kts | 106° |
| 2026-05-01 09:07 | 59.80238 | 30.27926 | 87 ft | 16 kts | 107° |
| 2026-05-01 09:08 | 59.80205 | 30.28133 | 87 ft | 16 kts | 106° |
| 2026-05-01 09:08 | 59.80174 | 30.28346 | 85 ft | 16 kts | 106° |
| 2026-05-01 09:08 | 59.80138 | 30.28587 | 85 ft | 21 kts | 106° |
| 2026-05-01 09:08 | 59.80096 | 30.28868 | 87 ft | 21 kts | 106° |
| 2026-05-01 09:09 | 59.80054 | 30.29151 | 87 ft | 21 kts | 106° |
| 2026-05-01 09:09 | 59.80012 | 30.29433 | 86 ft | 21 kts | 106° |
| 2026-05-01 09:09 | 59.79968 | 30.29714 | 85 ft | 21 kts | 107° |
| 2026-05-01 09:09 | 59.79942 | 30.29983 | 85 ft | 17 kts | 81° |
| 2026-05-01 09:10 | 59.79983 | 30.30118 | 83 ft | 0 kts | 49° |
| 2026-05-01 09:10 | 59.80015 | 30.30191 | 86 ft | 18 kts | 48° |
| 2026-05-01 09:11 | 59.80099 | 30.30270 | 83 ft | 13 kts | 340° |
| 2026-05-01 09:11 | 59.80138 | 30.30114 | 82 ft | 12 kts | 285° |
| 2026-05-01 09:11 | 59.80139 | 30.30106 | 81 ft | 0 kts | 285° |
| 2026-05-01 09:13 | 59.80149 | 30.30037 | 84 ft | 27 kts | 285° |
| 2026-05-01 09:13 | 59.80336 | 30.28805 | 86 ft | 159 kts | 287° |
| 2026-05-01 09:13 | 59.80740 | 30.26195 | 942 ft | 207 kts | 287° |
| 2026-05-01 09:14 | 59.81099 | 30.23576 | 3393 ft | 185 kts | 284° |
| 2026-05-01 09:14 | 59.81416 | 30.21029 | 5030 ft | 199 kts | 288° |
| 2026-05-01 09:14 | 59.81813 | 30.18259 | 5747 ft | 221 kts | 291° |
| 2026-05-01 09:14 | 59.82344 | 30.15140 | 6338 ft | 250 kts | 290° |
| 2026-05-01 09:15 | 59.82862 | 30.11762 | 7299 ft | 261 kts | 290° |
| 2026-05-01 09:15 | 59.83383 | 30.08240 | 8347 ft | 269 kts | 290° |
| 2026-05-01 09:15 | 59.83874 | 30.04671 | 9435 ft | 274 kts | 284° |
| 2026-05-01 09:15 | 59.83745 | 30.00778 | 10408 ft | 295 kts | 256° |
| 2026-05-01 09:16 | 59.82651 | 29.97107 | 11046 ft | 330 kts | 229° |
| 2026-05-01 09:16 | 59.80627 | 29.94463 | 11324 ft | 370 kts | 204° |
| 2026-05-01 09:16 | 59.78036 | 29.93291 | 11778 ft | 396 kts | 180° |
| 2026-05-01 09:17 | 59.73044 | 29.97582 | 13816 ft | 402 kts | 128° |
| 2026-05-01 09:17 | 59.71604 | 30.02229 | 14863 ft | 394 kts | 104° |
| 2026-05-01 09:17 | 59.70119 | 30.12658 | 16698 ft | 403 kts | 99° |
| 2026-05-01 09:18 | 59.69469 | 30.18053 | 17729 ft | 400 kts | 90° |
| 2026-05-01 09:18 | 59.69336 | 30.29082 | 19635 ft | 405 kts | 83° |
| 2026-05-01 09:19 | 59.68924 | 30.40396 | 21365 ft | 426 kts | 94° |
| 2026-05-01 09:19 | 59.68255 | 30.46174 | 22222 ft | 434 kts | 96° |
| 2026-05-01 09:19 | 59.67515 | 30.52007 | 23093 ft | 440 kts | 96° |
| 2026-05-01 09:20 | 59.66147 | 30.63846 | 24604 ft | 448 kts | 94° |
| 2026-05-01 09:20 | 59.64925 | 30.76007 | 26057 ft | 452 kts | 91° |
| 2026-05-01 09:21 | 59.63934 | 30.88385 | 27408 ft | 460 kts | 90° |
| 2026-05-01 09:21 | 59.63443 | 30.94654 | 28052 ft | 464 kts | 90° |
| 2026-05-01 09:21 | 59.62411 | 31.07362 | 29291 ft | 472 kts | 91° |
| 2026-05-01 09:22 | 59.61317 | 31.20257 | 30394 ft | 479 kts | 91° |
| 2026-05-01 09:22 | 59.60185 | 31.33309 | 31352 ft | 482 kts | 91° |
| 2026-05-01 09:23 | 59.59614 | 31.39811 | 31998 ft | 480 kts | 91° |
| 2026-05-01 09:23 | 59.58473 | 31.52728 | 33238 ft | 475 kts | 91° |
| 2026-05-01 09:24 | 59.57343 | 31.65451 | 34327 ft | 473 kts | 92° |
| 2026-05-01 09:24 | 59.56773 | 31.71830 | 34738 ft | 473 kts | 92° |
| 2026-05-01 09:24 | 59.55619 | 31.84636 | 35484 ft | 475 kts | 92° |
| 2026-05-01 09:25 | 59.54447 | 31.97451 | 36264 ft | 475 kts | 93° |
| 2026-05-01 09:25 | 59.53262 | 32.10278 | 36978 ft | 476 kts | 94° |
| 2026-05-01 09:26 | 59.52561 | 32.16679 | 37344 ft | 480 kts | 97° |
| 2026-05-01 09:26 | 59.51127 | 32.27253 | 37961 ft | 481 kts | 99° |
| 2026-05-01 09:26 | 59.49890 | 32.35745 | 38445 ft | 482 kts | 100° |
| 2026-05-01 09:27 | 59.48054 | 32.48425 | 39066 ft | 482 kts | 100° |
| 2026-05-01 09:27 | 59.47454 | 32.52634 | 39114 ft | 484 kts | 100° |
| 2026-05-01 09:28 | 59.45362 | 32.67443 | 39183 ft | 483 kts | 99° |
| 2026-05-01 09:28 | 59.43569 | 32.80127 | 39202 ft | 481 kts | 100° |
| 2026-05-01 09:29 | 59.40865 | 32.99074 | 39203 ft | 480 kts | 100° |
| 2026-05-01 09:30 | 59.38130 | 33.17997 | 39208 ft | 480 kts | 100° |
| 2026-05-01 09:30 | 59.35368 | 33.36875 | 39195 ft | 479 kts | 100° |
| 2026-05-01 09:31 | 59.33515 | 33.49417 | 39202 ft | 479 kts | 101° |
| 2026-05-01 09:32 | 59.30710 | 33.68233 | 39201 ft | 480 kts | 101° |
| 2026-05-01 09:32 | 59.27889 | 33.86941 | 39198 ft | 480 kts | 101° |
| 2026-05-01 09:33 | 59.25987 | 33.99436 | 39201 ft | 480 kts | 101° |
| 2026-05-01 09:34 | 59.23110 | 34.18169 | 39199 ft | 480 kts | 101° |
| 2026-05-01 09:34 | 59.20203 | 34.36886 | 39203 ft | 480 kts | 101° |
| 2026-05-01 09:35 | 59.17282 | 34.55485 | 39201 ft | 479 kts | 102° |
| 2026-05-01 09:36 | 59.15314 | 34.67908 | 39203 ft | 479 kts | 102° |
| 2026-05-01 09:36 | 59.13335 | 34.80312 | 39200 ft | 479 kts | 102° |
| 2026-05-01 09:37 | 59.11343 | 34.92709 | 39202 ft | 480 kts | 102° |
| 2026-05-01 09:37 | 59.08331 | 35.11289 | 39206 ft | 480 kts | 102° |
| 2026-05-01 09:38 | 59.05305 | 35.29761 | 39204 ft | 480 kts | 102° |
| 2026-05-01 09:39 | 59.02238 | 35.48285 | 39200 ft | 480 kts | 103° |
| 2026-05-01 09:39 | 59.00180 | 35.60609 | 39203 ft | 481 kts | 103° |
| 2026-05-01 09:40 | 58.97063 | 35.79120 | 39199 ft | 482 kts | 103° |
| 2026-05-01 09:41 | 58.95323 | 35.89366 | 39199 ft | 482 kts | 103° |
| 2026-05-01 09:41 | 58.91802 | 36.09931 | 39197 ft | 482 kts | 103° |
| 2026-05-01 09:42 | 58.89673 | 36.22250 | 39198 ft | 483 kts | 104° |
| 2026-05-01 09:43 | 58.85743 | 36.44780 | 39187 ft | 483 kts | 104° |
| 2026-05-01 09:43 | 58.83577 | 36.57082 | 39202 ft | 483 kts | 104° |
| 2026-05-01 09:44 | 58.80311 | 36.75480 | 39193 ft | 483 kts | 104° |
| 2026-05-01 09:45 | 58.78116 | 36.87743 | 39192 ft | 483 kts | 105° |
| 2026-05-01 09:45 | 58.74819 | 37.06009 | 39188 ft | 483 kts | 105° |
| 2026-05-01 09:46 | 58.72596 | 37.18227 | 39184 ft | 484 kts | 105° |
| 2026-05-01 09:46 | 58.70360 | 37.30443 | 39178 ft | 484 kts | 105° |
| 2026-05-01 09:47 | 58.68108 | 37.42660 | 39180 ft | 484 kts | 105° |
| 2026-05-01 09:47 | 58.65843 | 37.54873 | 39178 ft | 485 kts | 105° |
| 2026-05-01 09:48 | 58.63572 | 37.67039 | 39172 ft | 484 kts | 106° |
| 2026-05-01 09:48 | 58.61302 | 37.79122 | 39170 ft | 484 kts | 106° |
| 2026-05-01 09:49 | 58.59007 | 37.91259 | 39173 ft | 484 kts | 106° |
| 2026-05-01 09:49 | 58.56704 | 38.03368 | 39175 ft | 483 kts | 106° |
| 2026-05-01 09:50 | 58.54391 | 38.15452 | 39172 ft | 483 kts | 107° |
| 2026-05-01 09:50 | 58.52068 | 38.27509 | 39177 ft | 483 kts | 107° |
| 2026-05-01 09:51 | 58.49729 | 38.39583 | 39179 ft | 483 kts | 107° |
| 2026-05-01 09:51 | 58.47381 | 38.51622 | 39178 ft | 483 kts | 107° |
| 2026-05-01 09:52 | 58.45036 | 38.63575 | 39176 ft | 483 kts | 107° |
| 2026-05-01 09:52 | 58.42661 | 38.75606 | 39176 ft | 483 kts | 107° |
| 2026-05-01 09:53 | 58.40279 | 38.87598 | 39173 ft | 483 kts | 107° |
| 2026-05-01 09:53 | 58.37886 | 38.99575 | 39172 ft | 484 kts | 108° |
| 2026-05-01 09:54 | 58.35479 | 39.11549 | 39170 ft | 484 kts | 108° |
| 2026-05-01 09:54 | 58.33061 | 39.23510 | 39169 ft | 484 kts | 108° |
| 2026-05-01 09:55 | 58.30628 | 39.35465 | 39175 ft | 484 kts | 108° |
| 2026-05-01 09:55 | 58.28185 | 39.47404 | 39167 ft | 484 kts | 108° |
| 2026-05-01 09:56 | 58.25730 | 39.59330 | 39173 ft | 485 kts | 108° |
| 2026-05-01 09:56 | 58.23264 | 39.71244 | 39174 ft | 485 kts | 108° |
| 2026-05-01 09:57 | 58.20781 | 39.83162 | 39175 ft | 486 kts | 108° |
| 2026-05-01 09:57 | 58.18303 | 39.94992 | 39177 ft | 486 kts | 109° |
| 2026-05-01 09:58 | 58.15797 | 40.06883 | 39182 ft | 486 kts | 109° |
| 2026-05-01 09:58 | 58.13279 | 40.18766 | 39182 ft | 487 kts | 109° |
| 2026-05-01 09:59 | 58.10749 | 40.30637 | 39183 ft | 487 kts | 109° |
| 2026-05-01 09:59 | 58.08204 | 40.42510 | 39182 ft | 487 kts | 109° |
| 2026-05-01 10:00 | 58.05652 | 40.54356 | 39184 ft | 487 kts | 109° |
| 2026-05-01 10:00 | 58.02806 | 40.65981 | 39186 ft | 489 kts | 116° |
| 2026-05-01 10:01 | 57.99481 | 40.77176 | 39189 ft | 490 kts | 117° |
| 2026-05-01 10:01 | 57.96115 | 40.88333 | 39187 ft | 490 kts | 117° |
| 2026-05-01 10:02 | 57.92784 | 40.99443 | 39189 ft | 490 kts | 117° |
| 2026-05-01 10:02 | 57.89421 | 41.10681 | 39188 ft | 490 kts | 117° |
| 2026-05-01 10:03 | 57.86093 | 41.21773 | 39195 ft | 490 kts | 117° |
| 2026-05-01 10:03 | 57.82730 | 41.32917 | 39196 ft | 491 kts | 117° |
| 2026-05-01 10:04 | 57.79353 | 41.44052 | 39195 ft | 491 kts | 117° |
| 2026-05-01 10:04 | 57.75966 | 41.55163 | 39191 ft | 491 kts | 117° |
| 2026-05-01 10:05 | 57.72570 | 41.66255 | 39193 ft | 491 kts | 117° |
| 2026-05-01 10:05 | 57.69168 | 41.77314 | 39196 ft | 491 kts | 118° |
| 2026-05-01 10:06 | 57.65775 | 41.88287 | 39189 ft | 491 kts | 118° |
| 2026-05-01 10:06 | 57.62355 | 41.99301 | 39195 ft | 491 kts | 118° |
| 2026-05-01 10:07 | 57.58920 | 42.10314 | 39186 ft | 491 kts | 118° |
| 2026-05-01 10:07 | 57.55474 | 42.21305 | 39194 ft | 491 kts | 118° |
| 2026-05-01 10:08 | 57.50284 | 42.37770 | 39186 ft | 492 kts | 119° |
| 2026-05-01 10:09 | 57.46804 | 42.48742 | 39185 ft | 492 kts | 119° |
| 2026-05-01 10:09 | 57.43320 | 42.59674 | 39183 ft | 492 kts | 119° |
| 2026-05-01 10:10 | 57.39830 | 42.70576 | 39184 ft | 491 kts | 119° |
| 2026-05-01 10:10 | 57.34580 | 42.86884 | 39188 ft | 491 kts | 120° |
| 2026-05-01 10:11 | 57.31136 | 42.97523 | 39184 ft | 491 kts | 120° |
| 2026-05-01 10:11 | 57.27848 | 43.07635 | 39184 ft | 491 kts | 120° |
| 2026-05-01 10:12 | 57.24917 | 43.16615 | 39184 ft | 491 kts | 120° |
| 2026-05-01 10:13 | 57.19029 | 43.34546 | 39182 ft | 491 kts | 120° |
| 2026-05-01 10:13 | 57.15477 | 43.45301 | 39180 ft | 492 kts | 120° |
| 2026-05-01 10:14 | 57.10109 | 43.61460 | 39177 ft | 494 kts | 121° |
| 2026-05-01 10:14 | 57.06516 | 43.72216 | 39167 ft | 493 kts | 121° |
| 2026-05-01 10:15 | 57.02926 | 43.82917 | 39169 ft | 492 kts | 121° |
| 2026-05-01 10:15 | 56.99327 | 43.93594 | 39172 ft | 491 kts | 121° |
| 2026-05-01 10:16 | 56.95720 | 44.04248 | 39164 ft | 493 kts | 122° |
| 2026-05-01 10:17 | 56.90280 | 44.20226 | 39163 ft | 493 kts | 122° |
| 2026-05-01 10:17 | 56.84825 | 44.36144 | 39164 ft | 492 kts | 122° |
| 2026-05-01 10:18 | 56.79360 | 44.51988 | 39154 ft | 491 kts | 122° |
| 2026-05-01 10:19 | 56.75706 | 44.62523 | 39154 ft | 491 kts | 122° |
| 2026-05-01 10:19 | 56.72042 | 44.73039 | 39153 ft | 492 kts | 123° |
| 2026-05-01 10:20 | 56.66526 | 44.88798 | 39142 ft | 492 kts | 123° |
| 2026-05-01 10:20 | 56.62849 | 44.99190 | 39146 ft | 492 kts | 123° |
| 2026-05-01 10:21 | 56.57225 | 45.14771 | 39141 ft | 491 kts | 124° |
| 2026-05-01 10:22 | 56.51603 | 45.30271 | 39138 ft | 489 kts | 124° |
| 2026-05-01 10:23 | 56.46006 | 45.45628 | 39139 ft | 490 kts | 124° |
| 2026-05-01 10:23 | 56.40354 | 45.61040 | 39135 ft | 491 kts | 124° |
| 2026-05-01 10:24 | 56.32790 | 45.81511 | 39088 ft | 491 kts | 124° |
| 2026-05-01 10:25 | 56.28931 | 45.91887 | 37583 ft | 499 kts | 124° |
| 2026-05-01 10:25 | 56.25071 | 46.02226 | 36061 ft | 496 kts | 125° |
| 2026-05-01 10:26 | 56.23143 | 46.07376 | 35236 ft | 496 kts | 125° |
| 2026-05-01 10:26 | 56.21210 | 46.12525 | 34326 ft | 497 kts | 125° |
| 2026-05-01 10:26 | 56.17364 | 46.22739 | 32889 ft | 487 kts | 125° |
| 2026-05-01 10:27 | 56.13639 | 46.32596 | 31680 ft | 474 kts | 126° |
| 2026-05-01 10:27 | 56.09980 | 46.42239 | 30538 ft | 462 kts | 126° |
| 2026-05-01 10:28 | 56.08180 | 46.46972 | 29919 ft | 457 kts | 126° |
| 2026-05-01 10:28 | 56.05177 | 46.56877 | 28696 ft | 447 kts | 114° |
| 2026-05-01 10:28 | 56.04078 | 46.62048 | 28117 ft | 442 kts | 113° |
| 2026-05-01 10:29 | 56.01959 | 46.72201 | 27002 ft | 431 kts | 114° |
| 2026-05-01 10:29 | 56.00905 | 46.77180 | 26452 ft | 426 kts | 114° |
| 2026-05-01 10:30 | 55.98823 | 46.86896 | 25354 ft | 417 kts | 115° |
| 2026-05-01 10:30 | 55.96752 | 46.96473 | 24280 ft | 410 kts | 115° |
| 2026-05-01 10:31 | 55.94703 | 47.05904 | 23146 ft | 404 kts | 115° |
| 2026-05-01 10:31 | 55.93024 | 47.13606 | 22240 ft | 397 kts | 115° |
| 2026-05-01 10:32 | 55.91034 | 47.22690 | 21210 ft | 389 kts | 115° |
| 2026-05-01 10:32 | 55.90049 | 47.27164 | 20693 ft | 386 kts | 115° |
| 2026-05-01 10:32 | 55.88095 | 47.36020 | 19661 ft | 382 kts | 114° |
| 2026-05-01 10:33 | 55.86159 | 47.44764 | 18657 ft | 378 kts | 114° |
| 2026-05-01 10:33 | 55.84229 | 47.53449 | 17564 ft | 375 kts | 114° |
| 2026-05-01 10:34 | 55.83273 | 47.57736 | 17046 ft | 372 kts | 114° |
| 2026-05-01 10:34 | 55.82323 | 47.61990 | 16546 ft | 369 kts | 114° |
| 2026-05-01 10:34 | 55.81375 | 47.66226 | 16033 ft | 367 kts | 114° |
| 2026-05-01 10:35 | 55.79508 | 47.74554 | 15042 ft | 363 kts | 113° |
| 2026-05-01 10:35 | 55.78572 | 47.78706 | 14542 ft | 362 kts | 114° |
| 2026-05-01 10:35 | 55.77638 | 47.82844 | 14051 ft | 360 kts | 113° |
| 2026-05-01 10:35 | 55.76705 | 47.86967 | 13525 ft | 358 kts | 113° |
| 2026-05-01 10:36 | 55.74857 | 47.95115 | 12531 ft | 352 kts | 113° |
| 2026-05-01 10:36 | 55.73942 | 47.99140 | 12054 ft | 350 kts | 113° |
| 2026-05-01 10:36 | 55.73033 | 48.03133 | 11582 ft | 347 kts | 113° |
| 2026-05-01 10:37 | 55.72130 | 48.07090 | 11094 ft | 345 kts | 113° |
| 2026-05-01 10:37 | 55.70357 | 48.14848 | 10569 ft | 330 kts | 113° |
| 2026-05-01 10:37 | 55.69507 | 48.18558 | 10403 ft | 319 kts | 113° |
| 2026-05-01 10:38 | 55.68694 | 48.22092 | 10282 ft | 309 kts | 113° |
| 2026-05-01 10:38 | 55.67885 | 48.25610 | 10159 ft | 300 kts | 113° |
| 2026-05-01 10:38 | 55.67116 | 48.28952 | 9984 ft | 295 kts | 113° |
| 2026-05-01 10:38 | 55.66346 | 48.32280 | 9783 ft | 290 kts | 113° |
| 2026-05-01 10:39 | 55.65582 | 48.35579 | 9456 ft | 289 kts | 113° |
| 2026-05-01 10:39 | 55.64818 | 48.38885 | 9128 ft | 289 kts | 113° |
| 2026-05-01 10:39 | 55.64065 | 48.42133 | 8670 ft | 279 kts | 113° |
| 2026-05-01 10:39 | 55.63347 | 48.45224 | 8330 ft | 262 kts | 113° |
| 2026-05-01 10:40 | 55.62682 | 48.48144 | 8006 ft | 251 kts | 109° |
| 2026-05-01 10:40 | 55.62472 | 48.51167 | 7723 ft | 248 kts | 88° |
| 2026-05-01 10:40 | 55.62540 | 48.54198 | 7456 ft | 245 kts | 88° |
| 2026-05-01 10:40 | 55.62594 | 48.57208 | 7176 ft | 244 kts | 89° |
| 2026-05-01 10:41 | 55.62641 | 48.60235 | 6899 ft | 248 kts | 89° |
| 2026-05-01 10:41 | 55.62684 | 48.63320 | 6620 ft | 252 kts | 89° |
| 2026-05-01 10:41 | 55.62760 | 48.69540 | 6010 ft | 253 kts | 89° |
| 2026-05-01 10:42 | 55.62795 | 48.72607 | 5714 ft | 253 kts | 89° |
| 2026-05-01 10:42 | 55.62828 | 48.75724 | 5419 ft | 253 kts | 89° |
| 2026-05-01 10:42 | 55.62860 | 48.78842 | 5129 ft | 254 kts | 90° |
| 2026-05-01 10:42 | 55.62891 | 48.81964 | 4814 ft | 254 kts | 90° |
| 2026-05-01 10:43 | 55.62920 | 48.85105 | 4513 ft | 255 kts | 90° |
| 2026-05-01 10:43 | 55.62953 | 48.88206 | 4410 ft | 245 kts | 87° |
| 2026-05-01 10:43 | 55.63420 | 48.90984 | 4324 ft | 233 kts | 57° |
| 2026-05-01 10:43 | 55.64501 | 48.93094 | 4058 ft | 232 kts | 41° |
| 2026-05-01 10:44 | 55.65695 | 48.95046 | 3821 ft | 234 kts | 42° |
| 2026-05-01 10:44 | 55.66880 | 48.97003 | 3636 ft | 233 kts | 42° |
| 2026-05-01 10:44 | 55.68060 | 48.98954 | 3404 ft | 231 kts | 42° |
| 2026-05-01 10:44 | 55.69111 | 49.01046 | 3069 ft | 226 kts | 64° |
| 2026-05-01 10:45 | 55.69398 | 49.03387 | 2909 ft | 216 kts | 97° |
| 2026-05-01 10:45 | 55.68921 | 49.05809 | 2754 ft | 203 kts | 119° |
| 2026-05-01 10:45 | 55.68265 | 49.07968 | 2585 ft | 195 kts | 122° |
| 2026-05-01 10:45 | 55.67547 | 49.09979 | 2439 ft | 192 kts | 126° |
| 2026-05-01 10:46 | 55.66790 | 49.11942 | 2194 ft | 195 kts | 127° |
| 2026-05-01 10:46 | 55.66032 | 49.13908 | 1909 ft | 188 kts | 126° |
| 2026-05-01 10:46 | 55.65327 | 49.15732 | 1643 ft | 171 kts | 127° |
| 2026-05-01 10:46 | 55.64690 | 49.17386 | 1369 ft | 158 kts | 127° |
| 2026-05-01 10:47 | 55.64071 | 49.18988 | 1090 ft | 156 kts | 126° |
| 2026-05-01 10:47 | 55.63463 | 49.20532 | 928 ft | 150 kts | 127° |
| 2026-05-01 10:47 | 55.62875 | 49.22054 | 818 ft | 151 kts | 125° |
| 2026-05-01 10:47 | 55.62292 | 49.23557 | 670 ft | 148 kts | 126° |
| 2026-05-01 10:48 | 55.61727 | 49.25024 | 482 ft | 141 kts | 126° |
| 2026-05-01 10:48 | 55.61200 | 49.26393 | 413 ft | 120 kts | 124° |
| 2026-05-01 10:48 | 55.60829 | 49.27343 | 413 ft | 67 kts | 124° |
| 2026-05-01 10:48 | 55.60606 | 49.27927 | 415 ft | 53 kts | 125° |
| 2026-05-01 10:49 | 55.60433 | 49.28371 | 411 ft | 27 kts | 126° |
| 2026-05-01 10:49 | 55.60393 | 49.28536 | 421 ft | 15 kts | 77° |
| 2026-05-01 10:49 | 55.60468 | 49.28664 | 416 ft | 16 kts | 37° |
| 2026-05-01 10:49 | 55.60538 | 49.28750 | 417 ft | 4 kts | 33° |
| 2026-05-01 10:50 | 55.60561 | 49.28787 | 413 ft | 5 kts | 45° |
| 2026-05-01 10:50 | 55.60577 | 49.28850 | 411 ft | 6 kts | 79° |
| 2026-05-01 10:50 | 55.60579 | 49.28897 | 414 ft | 0 kts | 89° |
| 2026-05-01 10:50 | 55.60579 | 49.28906 | 418 ft | 5 kts | 90° |
| 2026-05-01 10:51 | 55.60576 | 49.28997 | 419 ft | 8 kts | 94° |
| 2026-05-01 10:51 | 55.60604 | 49.29164 | 411 ft | 23 kts | 48° |
| 2026-05-01 10:51 | 55.60695 | 49.29283 | 416 ft | 14 kts | 35° |
| 2026-05-01 10:51 | 55.60773 | 49.29379 | 416 ft | 14 kts | 35° |
| 2026-05-01 10:52 | 55.60801 | 49.29523 | 409 ft | 14 kts | 116° |
| 2026-05-01 10:52 | 55.60741 | 49.29661 | 414 ft | 14 kts | 124° |
| 2026-05-01 10:52 | 55.60686 | 49.29808 | 415 ft | 14 kts | 124° |
| 2026-05-01 10:52 | 55.60630 | 49.29953 | 409 ft | 14 kts | 124° |
| 2026-05-01 10:53 | 55.60563 | 49.30079 | 409 ft | 14 kts | 167° |
| 2026-05-01 10:53 | 55.60496 | 49.30025 | 414 ft | 7 kts | 240° |
| 2026-05-01 10:53 | 55.60505 | 49.29939 | 415 ft | 0 kts | 303° |
| 2026-05-01 10:53 | 55.60511 | 49.29917 | 412 ft | 4 kts | 297° |
| 2026-05-01 10:54 | 55.60522 | 49.29887 | 412 ft | 3 kts | 303° |
| 2026-05-01 10:54 | 55.60530 | 49.29865 | 409 ft | 0 kts | 304° |
| 2026-05-01 12:10 | 55.60503 | 49.29939 | 409 ft | 4 kts | 303° |
| 2026-05-01 12:10 | 55.60488 | 49.29977 | 409 ft | 2 kts | 303° |
| 2026-05-01 12:11 | 55.60477 | 49.30040 | 409 ft | 4 kts | 235° |
| 2026-05-01 12:11 | 55.60493 | 49.30063 | 409 ft | 4 kts | 204° |
| 2026-05-01 12:11 | 55.60518 | 49.30082 | 409 ft | 4 kts | 205° |
| 2026-05-01 12:12 | 55.60535 | 49.30097 | 409 ft | 0 kts | 214° |
| 2026-05-01 12:13 | 55.60531 | 49.30093 | 409 ft | 3 kts | 214° |
| 2026-05-01 12:13 | 55.60482 | 49.30035 | 409 ft | 10 kts | 213° |
| 2026-05-01 12:14 | 55.60432 | 49.29977 | 413 ft | 8 kts | 213° |
| 2026-05-01 12:14 | 55.60386 | 49.29924 | 416 ft | 8 kts | 212° |
| 2026-05-01 12:14 | 55.60336 | 49.29889 | 417 ft | 8 kts | 194° |
| 2026-05-01 12:14 | 55.60282 | 49.29883 | 415 ft | 8 kts | 174° |
| 2026-05-01 12:15 | 55.60200 | 49.29935 | 411 ft | 15 kts | 155° |
| 2026-05-01 12:15 | 55.60107 | 49.30014 | 413 ft | 15 kts | 153° |
| 2026-05-01 12:15 | 55.60015 | 49.30095 | 413 ft | 15 kts | 154° |
| 2026-05-01 12:15 | 55.59933 | 49.30117 | 414 ft | 4 kts | 188° |
| 2026-05-01 12:16 | 55.59925 | 49.30113 | 412 ft | 0 kts | 195° |
| 2026-05-01 12:17 | 55.59916 | 49.30108 | 413 ft | 6 kts | 199° |
| 2026-05-01 12:17 | 55.59874 | 49.30063 | 417 ft | 7 kts | 215° |
| 2026-05-01 12:17 | 55.59834 | 49.29957 | 415 ft | 12 kts | 271° |
| 2026-05-01 12:17 | 55.59870 | 49.29820 | 416 ft | 12 kts | 304° |
| 2026-05-01 12:18 | 55.59885 | 49.29783 | 411 ft | 1 kts | 304° |
| 2026-05-01 12:18 | 55.60038 | 49.29383 | 411 ft | 91 kts | 304° |
| 2026-05-01 12:18 | 55.60607 | 49.27955 | 430 ft | 190 kts | 306° |
| 2026-05-01 12:18 | 55.61359 | 49.26031 | 1780 ft | 180 kts | 305° |
| 2026-05-01 12:19 | 55.62043 | 49.24095 | 3279 ft | 193 kts | 300° |
| 2026-05-01 12:19 | 55.62473 | 49.21697 | 4408 ft | 219 kts | 281° |
| 2026-05-01 12:19 | 55.62453 | 49.18805 | 5079 ft | 254 kts | 251° |
| 2026-05-01 12:19 | 55.61434 | 49.16282 | 5941 ft | 264 kts | 217° |
| 2026-05-01 12:20 | 55.59742 | 49.14991 | 6704 ft | 269 kts | 196° |
| 2026-05-01 12:20 | 55.57924 | 49.13916 | 7458 ft | 275 kts | 200° |
| 2026-05-01 12:20 | 55.56236 | 49.12325 | 8182 ft | 280 kts | 223° |
| 2026-05-01 12:20 | 55.55069 | 49.09632 | 8999 ft | 282 kts | 243° |
| 2026-05-01 12:21 | 55.54312 | 49.06419 | 9846 ft | 286 kts | 253° |
| 2026-05-01 12:21 | 55.53728 | 49.03035 | 10582 ft | 293 kts | 255° |
| 2026-05-01 12:21 | 55.53148 | 48.99439 | 10862 ft | 317 kts | 255° |
| 2026-05-01 12:21 | 55.52515 | 48.95547 | 11086 ft | 343 kts | 255° |
| 2026-05-01 12:22 | 55.51829 | 48.91422 | 11680 ft | 355 kts | 254° |
| 2026-05-01 12:22 | 55.51112 | 48.87205 | 12500 ft | 362 kts | 254° |
| 2026-05-01 12:22 | 55.50368 | 48.82898 | 13163 ft | 375 kts | 254° |
| 2026-05-01 12:22 | 55.49583 | 48.78398 | 13688 ft | 390 kts | 253° |
| 2026-05-01 12:23 | 55.48771 | 48.73770 | 14465 ft | 397 kts | 253° |
| 2026-05-01 12:23 | 55.47945 | 48.69080 | 15291 ft | 403 kts | 253° |
| 2026-05-01 12:23 | 55.47107 | 48.64337 | 16129 ft | 407 kts | 253° |
| 2026-05-01 12:23 | 55.46259 | 48.59553 | 17041 ft | 411 kts | 252° |
| 2026-05-01 12:24 | 55.45539 | 48.54681 | 17639 ft | 415 kts | 263° |
| 2026-05-01 12:24 | 55.45767 | 48.49596 | 18237 ft | 422 kts | 287° |
| 2026-05-01 12:24 | 55.46741 | 48.44741 | 18776 ft | 423 kts | 289° |
| 2026-05-01 12:24 | 55.47679 | 48.39789 | 19433 ft | 428 kts | 287° |
| 2026-05-01 12:25 | 55.48566 | 48.34755 | 20102 ft | 432 kts | 287° |
| 2026-05-01 12:25 | 55.50312 | 48.24533 | 21447 ft | 439 kts | 286° |
| 2026-05-01 12:25 | 55.51183 | 48.19406 | 22033 ft | 445 kts | 286° |
| 2026-05-01 12:26 | 55.52079 | 48.14146 | 22571 ft | 450 kts | 286° |
| 2026-05-01 12:26 | 55.53895 | 48.03493 | 23818 ft | 455 kts | 286° |
| 2026-05-01 12:26 | 55.54808 | 47.98131 | 24333 ft | 458 kts | 285° |
| 2026-05-01 12:27 | 55.55728 | 47.92713 | 24818 ft | 462 kts | 285° |
| 2026-05-01 12:27 | 55.57578 | 47.81758 | 25770 ft | 468 kts | 285° |